KSFQ

Suffolk Executive Airport

Suffolk, Virginia, USA
METAR KSFQ 150035Z AUTO 00000KT 10SM -DZ SCT110 12/12 A3019 RMK AO2 T01160116
Observed Flight Rules
Dec-15 @ 00:35 UTC (25 minutes ago) Visual Flight Rules
Visibility Clouds Conditions
10 miles
  • Scattered at 11,000' AGL
  • Light Drizzle
Temperatures Readings
Current 12°C / 54°F
Dewpoint 12°C / 54°F
Humidity 100%
Altimeter 30.19" Hg
Pressure 1022 hPa
Elevation 22
METAR KSFQ 150035Z AUTO 00000KT 10SM -DZ SCT110 12/12 A3019 RMK AO2 T01160116
Observed Flight Rules
Dec-15 @ 00:35 UTC
(25 minutes ago)
VFR
Clouds
  • Scattered at 11,000' AGL
Conditions
  • Light Drizzle
Temperature Dewpoint
12°C / 54°F 12°C / 54°F
Humidity Altimeter Pressure
100% 30.19" Hg 1022 hPa